GWI6852 LEPA-EDDV
Flight info
| Callsign | GWI6852 |
|---|---|
| Flight time | N/A |
| Altitude | 38000 |
| Route | MEROS N853 LUMAS DCT MAXIR DCT LUSOL DCT BODRU DCT OKTET DCT IRMAR DCT KINES DCT VANAS DCT ESOKO DCT GODRA DCT LOKTA DCT TEDGO DCT HAREM DCT LOHRE DCT MASEK Z99 ELNAT P605 WERRA WERRA1Z |
| Aircraft | A320/M-SDE3FGHIRWY/LB1 |
Departure
| Time | 2026-05-05 16:25 |
|---|---|
| Airport | Palma de Mallorca Airport (LEPA) |
Arrival
| Time | N/A |
|---|---|
| Airport | Hannover Airport (EDDV) |
| Time | Latitude | Longitude | Altitude | Speed | Heading |
|---|---|---|---|---|---|
| 2026-05-05 15:54 | 39.54493 | 2.73181 | 39 ft | 0 kts | 344° |
| 2026-05-05 16:14 | 39.54469 | 2.73190 | 38 ft | 2 kts | 345° |
| 2026-05-05 16:14 | 39.54425 | 2.73176 | 36 ft | 4 kts | 54° |
| 2026-05-05 16:15 | 39.54413 | 2.73152 | 38 ft | 0 kts | 58° |
| 2026-05-05 16:18 | 39.54428 | 2.73183 | 37 ft | 8 kts | 58° |
| 2026-05-05 16:18 | 39.54472 | 2.73274 | 38 ft | 13 kts | 58° |
| 2026-05-05 16:18 | 39.54562 | 2.73463 | 38 ft | 11 kts | 58° |
| 2026-05-05 16:19 | 39.54603 | 2.73546 | 37 ft | 13 kts | 55° |
| 2026-05-05 16:19 | 39.54660 | 2.73670 | 37 ft | 17 kts | 64° |
| 2026-05-05 16:19 | 39.54770 | 2.73904 | 38 ft | 14 kts | 56° |
| 2026-05-05 16:20 | 39.54890 | 2.73968 | 38 ft | 10 kts | 330° |
| 2026-05-05 16:20 | 39.55032 | 2.73963 | 38 ft | 18 kts | 328° |
| 2026-05-05 16:21 | 39.55314 | 2.73739 | 38 ft | 26 kts | 328° |
| 2026-05-05 16:22 | 39.55684 | 2.73561 | 38 ft | 14 kts | 58° |
| 2026-05-05 16:22 | 39.55820 | 2.73850 | 38 ft | 25 kts | 58° |
| 2026-05-05 16:23 | 39.55976 | 2.74180 | 38 ft | 16 kts | 58° |
| 2026-05-05 16:23 | 39.56047 | 2.74274 | 38 ft | 14 kts | 26° |
| 2026-05-05 16:23 | 39.56201 | 2.74344 | 38 ft | 11 kts | 338° |
| 2026-05-05 16:24 | 39.56233 | 2.74277 | 38 ft | 9 kts | 256° |
| 2026-05-05 16:24 | 39.56202 | 2.74210 | 38 ft | 13 kts | 238° |
| 2026-05-05 16:24 | 39.55662 | 2.73069 | 39 ft | 136 kts | 238° |
| 2026-05-05 16:25 | 39.55122 | 2.71938 | 484 ft | 147 kts | 238° |
| 2026-05-05 16:25 | 39.54003 | 2.69558 | 1606 ft | 173 kts | 237° |
| 2026-05-05 16:25 | 39.53339 | 2.68150 | 1993 ft | 193 kts | 239° |
| 2026-05-05 16:26 | 39.51853 | 2.65014 | 3229 ft | 208 kts | 239° |
| 2026-05-05 16:26 | 39.50331 | 2.61802 | 4988 ft | 211 kts | 238° |
| 2026-05-05 16:27 | 39.49265 | 2.60373 | 5447 ft | 237 kts | 212° |
| 2026-05-05 16:27 | 39.47613 | 2.59869 | 5940 ft | 264 kts | 177° |
| 2026-05-05 16:27 | 39.45863 | 2.60828 | 6744 ft | 282 kts | 143° |
| 2026-05-05 16:27 | 39.44755 | 2.62931 | 7578 ft | 296 kts | 112° |
| 2026-05-05 16:28 | 39.44355 | 2.65580 | 8457 ft | 304 kts | 96° |
| 2026-05-05 16:28 | 39.44326 | 2.68335 | 9344 ft | 309 kts | 91° |
| 2026-05-05 16:28 | 39.44418 | 2.71139 | 10141 ft | 316 kts | 90° |
| 2026-05-05 16:28 | 39.44506 | 2.74085 | 10448 ft | 340 kts | 91° |
| 2026-05-05 16:29 | 39.44538 | 2.77237 | 10828 ft | 358 kts | 92° |
| 2026-05-05 16:29 | 39.44561 | 2.80488 | 11492 ft | 367 kts | 86° |
| 2026-05-05 16:29 | 39.45217 | 2.83706 | 12208 ft | 375 kts | 65° |
| 2026-05-05 16:29 | 39.46685 | 2.86507 | 12931 ft | 379 kts | 47° |
| 2026-05-05 16:30 | 39.48470 | 2.89050 | 13686 ft | 384 kts | 46° |
| 2026-05-05 16:30 | 39.50286 | 2.91607 | 14343 ft | 388 kts | 46° |
| 2026-05-05 16:30 | 39.52118 | 2.94180 | 14986 ft | 393 kts | 46° |
| 2026-05-05 16:30 | 39.53988 | 2.96818 | 15612 ft | 398 kts | 46° |
| 2026-05-05 16:31 | 39.55869 | 2.99486 | 16236 ft | 403 kts | 46° |
| 2026-05-05 16:31 | 39.57124 | 3.01272 | 16655 ft | 406 kts | 46° |
| 2026-05-05 16:31 | 39.59032 | 3.03993 | 17276 ft | 410 kts | 45° |
| 2026-05-05 16:31 | 39.60959 | 3.06747 | 17896 ft | 415 kts | 45° |
| 2026-05-05 16:32 | 39.62909 | 3.09536 | 18459 ft | 419 kts | 45° |
| 2026-05-05 16:32 | 39.64880 | 3.12358 | 18968 ft | 424 kts | 45° |
| 2026-05-05 16:32 | 39.66871 | 3.15209 | 19507 ft | 429 kts | 45° |
| 2026-05-05 16:32 | 39.68888 | 3.18094 | 20023 ft | 434 kts | 46° |
| 2026-05-05 16:33 | 39.70921 | 3.21008 | 20550 ft | 438 kts | 46° |
| 2026-05-05 16:33 | 39.72970 | 3.23943 | 21067 ft | 443 kts | 46° |
| 2026-05-05 16:33 | 39.75060 | 3.26941 | 21586 ft | 448 kts | 46° |
| 2026-05-05 16:33 | 39.77153 | 3.29950 | 22091 ft | 453 kts | 46° |
| 2026-05-05 16:34 | 39.79247 | 3.32968 | 22595 ft | 458 kts | 46° |
| 2026-05-05 16:34 | 39.81384 | 3.36054 | 23074 ft | 463 kts | 46° |
| 2026-05-05 16:34 | 39.83551 | 3.39185 | 23531 ft | 467 kts | 46° |
| 2026-05-05 16:34 | 39.85733 | 3.42334 | 23937 ft | 471 kts | 46° |
| 2026-05-05 16:35 | 39.87938 | 3.45519 | 24353 ft | 474 kts | 46° |
| 2026-05-05 16:35 | 39.90153 | 3.48727 | 24766 ft | 477 kts | 46° |
| 2026-05-05 16:35 | 39.92370 | 3.51949 | 25172 ft | 480 kts | 46° |
| 2026-05-05 16:35 | 39.94609 | 3.55201 | 25575 ft | 483 kts | 46° |
| 2026-05-05 16:36 | 39.96852 | 3.58460 | 25963 ft | 485 kts | 47° |
| 2026-05-05 16:36 | 39.99117 | 3.61748 | 26351 ft | 488 kts | 47° |
| 2026-05-05 16:36 | 40.01395 | 3.65054 | 26728 ft | 491 kts | 47° |
| 2026-05-05 16:36 | 40.03684 | 3.68383 | 27102 ft | 494 kts | 47° |
| 2026-05-05 16:37 | 40.05983 | 3.71734 | 27469 ft | 496 kts | 47° |
| 2026-05-05 16:37 | 40.08286 | 3.75094 | 27826 ft | 499 kts | 47° |
| 2026-05-05 16:37 | 40.10610 | 3.78487 | 28181 ft | 502 kts | 47° |
| 2026-05-05 16:37 | 40.12945 | 3.81899 | 28521 ft | 505 kts | 47° |
| 2026-05-05 16:38 | 40.15283 | 3.85321 | 28857 ft | 507 kts | 47° |
| 2026-05-05 16:38 | 40.17639 | 3.88777 | 29183 ft | 510 kts | 47° |
| 2026-05-05 16:38 | 40.19997 | 3.92240 | 29501 ft | 512 kts | 48° |
| 2026-05-05 16:38 | 40.22371 | 3.95736 | 29814 ft | 515 kts | 48° |
| 2026-05-05 16:39 | 40.24755 | 3.99253 | 30086 ft | 517 kts | 48° |
| 2026-05-05 16:39 | 40.27151 | 4.02786 | 30335 ft | 519 kts | 48° |
| 2026-05-05 16:39 | 40.29549 | 4.06321 | 30589 ft | 521 kts | 48° |
| 2026-05-05 16:39 | 40.31963 | 4.09884 | 30830 ft | 523 kts | 48° |
| 2026-05-05 16:40 | 40.34384 | 4.13459 | 31071 ft | 525 kts | 48° |
| 2026-05-05 16:40 | 40.36803 | 4.17043 | 31285 ft | 527 kts | 48° |
| 2026-05-05 16:40 | 40.39231 | 4.20643 | 31600 ft | 526 kts | 48° |
| 2026-05-05 16:40 | 40.41625 | 4.24197 | 31917 ft | 525 kts | 48° |
| 2026-05-05 16:41 | 40.44086 | 4.27851 | 32255 ft | 524 kts | 47° |
| 2026-05-05 16:41 | 40.46636 | 4.31170 | 32568 ft | 522 kts | 38° |
| 2026-05-05 16:41 | 40.49545 | 4.34013 | 32893 ft | 519 kts | 29° |
| 2026-05-05 16:41 | 40.52698 | 4.36268 | 33211 ft | 514 kts | 20° |
| 2026-05-05 16:42 | 40.56022 | 4.37904 | 33525 ft | 508 kts | 11° |
| 2026-05-05 16:42 | 40.59441 | 4.38924 | 33841 ft | 501 kts | 4° |
| 2026-05-05 16:42 | 40.62873 | 4.39735 | 34126 ft | 501 kts | 4° |
| 2026-05-05 16:42 | 40.66300 | 4.40548 | 34434 ft | 500 kts | 4° |
| 2026-05-05 16:43 | 40.69723 | 4.41365 | 34739 ft | 499 kts | 4° |
| 2026-05-05 16:43 | 40.73137 | 4.42185 | 35036 ft | 497 kts | 4° |
| 2026-05-05 16:43 | 40.76534 | 4.43005 | 35336 ft | 496 kts | 4° |
| 2026-05-05 16:43 | 40.79924 | 4.43822 | 35611 ft | 495 kts | 4° |
| 2026-05-05 16:44 | 40.83306 | 4.44640 | 35882 ft | 493 kts | 4° |
| 2026-05-05 16:44 | 40.86680 | 4.45455 | 36142 ft | 492 kts | 4° |
| 2026-05-05 16:44 | 40.90003 | 4.46257 | 36399 ft | 491 kts | 4° |
| 2026-05-05 16:44 | 40.93363 | 4.47067 | 36652 ft | 490 kts | 4° |
| 2026-05-05 16:45 | 40.96710 | 4.47871 | 36893 ft | 489 kts | 4° |
| 2026-05-05 16:45 | 41.00058 | 4.48676 | 37132 ft | 488 kts | 4° |
| 2026-05-05 16:45 | 41.03377 | 4.49478 | 37368 ft | 487 kts | 4° |
| 2026-05-05 16:45 | 41.06730 | 4.50297 | 37598 ft | 486 kts | 4° |
| 2026-05-05 16:46 | 41.10036 | 4.51110 | 37816 ft | 486 kts | 4° |
| 2026-05-05 16:46 | 41.13362 | 4.51924 | 37892 ft | 485 kts | 4° |
| 2026-05-05 16:46 | 41.19995 | 4.53535 | 37898 ft | 484 kts | 4° |
| 2026-05-05 16:47 | 41.26651 | 4.55165 | 37894 ft | 484 kts | 4° |
| 2026-05-05 16:47 | 41.33281 | 4.56793 | 37895 ft | 484 kts | 4° |
| 2026-05-05 16:48 | 41.39908 | 4.58408 | 37895 ft | 484 kts | 4° |
| 2026-05-05 16:48 | 41.46545 | 4.60030 | 37904 ft | 485 kts | 4° |
| 2026-05-05 16:49 | 41.53121 | 4.61666 | 37902 ft | 485 kts | 4° |
| 2026-05-05 16:49 | 41.59758 | 4.63309 | 37906 ft | 485 kts | 4° |
| 2026-05-05 16:50 | 41.66387 | 4.64944 | 37903 ft | 485 kts | 4° |
| 2026-05-05 16:50 | 41.72977 | 4.67021 | 37911 ft | 493 kts | 15° |
| 2026-05-05 16:51 | 41.79117 | 4.71304 | 37905 ft | 500 kts | 27° |
| 2026-05-05 16:51 | 41.85083 | 4.76111 | 37900 ft | 501 kts | 27° |
| 2026-05-05 16:52 | 41.91072 | 4.80929 | 37894 ft | 501 kts | 27° |
| 2026-05-05 16:52 | 41.97053 | 4.85742 | 37897 ft | 501 kts | 27° |
| 2026-05-05 16:53 | 42.03034 | 4.90580 | 37902 ft | 501 kts | 27° |
| 2026-05-05 16:53 | 42.09000 | 4.95428 | 37910 ft | 501 kts | 27° |
| 2026-05-05 16:54 | 42.14973 | 5.00281 | 37913 ft | 501 kts | 27° |
| 2026-05-05 16:54 | 42.20935 | 5.05133 | 37917 ft | 501 kts | 27° |
| 2026-05-05 16:55 | 42.26846 | 5.09954 | 37917 ft | 500 kts | 27° |
| 2026-05-05 16:55 | 42.32822 | 5.14842 | 37924 ft | 500 kts | 27° |
| 2026-05-05 16:56 | 42.38757 | 5.19706 | 37921 ft | 500 kts | 27° |
| 2026-05-05 16:56 | 42.44698 | 5.24591 | 37929 ft | 500 kts | 27° |
| 2026-05-05 16:57 | 42.50642 | 5.29486 | 37927 ft | 499 kts | 27° |
| 2026-05-05 16:57 | 42.56584 | 5.34388 | 37937 ft | 499 kts | 27° |
| 2026-05-05 16:58 | 42.62482 | 5.39274 | 37932 ft | 498 kts | 27° |
| 2026-05-05 16:58 | 42.68391 | 5.44174 | 37937 ft | 497 kts | 27° |
| 2026-05-05 16:59 | 42.74306 | 5.49074 | 37937 ft | 497 kts | 27° |
| 2026-05-05 16:59 | 42.80194 | 5.53984 | 37936 ft | 496 kts | 27° |
| 2026-05-05 17:00 | 42.86072 | 5.58907 | 37933 ft | 495 kts | 28° |
| 2026-05-05 17:00 | 42.91946 | 5.63821 | 37940 ft | 495 kts | 27° |
| 2026-05-05 17:01 | 42.97816 | 5.68723 | 37937 ft | 494 kts | 28° |
| 2026-05-05 17:01 | 43.03675 | 5.73635 | 37941 ft | 494 kts | 28° |
| 2026-05-05 17:02 | 43.09519 | 5.78573 | 37946 ft | 493 kts | 28° |
| 2026-05-05 17:02 | 43.15319 | 5.83478 | 37953 ft | 493 kts | 28° |
| 2026-05-05 17:03 | 43.21153 | 5.88421 | 37951 ft | 493 kts | 28° |
| 2026-05-05 17:03 | 43.26977 | 5.93362 | 37952 ft | 491 kts | 28° |
| 2026-05-05 17:04 | 43.32792 | 5.98307 | 37939 ft | 491 kts | 28° |
| 2026-05-05 17:04 | 43.38776 | 6.02684 | 37929 ft | 483 kts | 15° |
| 2026-05-05 17:05 | 43.45233 | 6.04635 | 37950 ft | 470 kts | 358° |
| 2026-05-05 17:05 | 43.51740 | 6.05259 | 37945 ft | 469 kts | 358° |
| 2026-05-05 17:06 | 43.58255 | 6.05919 | 37946 ft | 469 kts | 359° |
| 2026-05-05 17:06 | 43.64719 | 6.06595 | 37937 ft | 469 kts | 358° |
| 2026-05-05 17:07 | 43.71228 | 6.07253 | 37945 ft | 469 kts | 358° |
| 2026-05-05 17:07 | 43.77711 | 6.08652 | 37932 ft | 478 kts | 13° |
| 2026-05-05 17:08 | 43.83843 | 6.12391 | 37939 ft | 484 kts | 22° |
| 2026-05-05 17:08 | 43.89891 | 6.16523 | 37929 ft | 484 kts | 22° |
| 2026-05-05 17:09 | 43.95938 | 6.20641 | 37936 ft | 484 kts | 22° |
| 2026-05-05 17:09 | 44.01991 | 6.24776 | 37939 ft | 485 kts | 22° |
| 2026-05-05 17:10 | 44.08003 | 6.28907 | 37943 ft | 486 kts | 22° |
| 2026-05-05 17:10 | 44.14061 | 6.33088 | 37937 ft | 485 kts | 22° |
| 2026-05-05 17:11 | 44.20026 | 6.37205 | 37944 ft | 485 kts | 22° |
| 2026-05-05 17:11 | 44.26077 | 6.41376 | 37931 ft | 485 kts | 22° |
| 2026-05-05 17:12 | 44.32134 | 6.45560 | 37938 ft | 485 kts | 22° |
| 2026-05-05 17:12 | 44.38146 | 6.49735 | 37929 ft | 485 kts | 22° |
| 2026-05-05 17:13 | 44.44230 | 6.53968 | 37946 ft | 485 kts | 22° |
| 2026-05-05 17:13 | 44.50226 | 6.58153 | 37942 ft | 485 kts | 22° |
| 2026-05-05 17:14 | 44.56268 | 6.62375 | 37947 ft | 485 kts | 23° |
| 2026-05-05 17:14 | 44.62309 | 6.66597 | 37941 ft | 485 kts | 23° |
| 2026-05-05 17:15 | 44.68350 | 6.70832 | 37944 ft | 485 kts | 23° |
| 2026-05-05 17:15 | 44.74378 | 6.75066 | 37942 ft | 484 kts | 23° |
| 2026-05-05 17:16 | 44.80657 | 6.78146 | 37950 ft | 474 kts | 5° |
| 2026-05-05 17:16 | 44.87134 | 6.78585 | 37950 ft | 462 kts | 352° |
| 2026-05-05 17:17 | 44.93522 | 6.78148 | 37931 ft | 462 kts | 352° |
| 2026-05-05 17:17 | 44.99956 | 6.77729 | 37935 ft | 462 kts | 352° |
| 2026-05-05 17:18 | 45.06387 | 6.77313 | 37938 ft | 463 kts | 352° |
| 2026-05-05 17:18 | 45.12829 | 6.76889 | 37946 ft | 463 kts | 352° |
| 2026-05-05 17:19 | 45.19261 | 6.76461 | 37940 ft | 462 kts | 352° |
| 2026-05-05 17:19 | 45.25693 | 6.76034 | 37934 ft | 463 kts | 352° |
| 2026-05-05 17:20 | 45.32127 | 6.75600 | 37937 ft | 463 kts | 352° |
| 2026-05-05 17:20 | 45.38518 | 6.75170 | 37927 ft | 463 kts | 352° |
| 2026-05-05 17:21 | 45.44997 | 6.75725 | 37929 ft | 472 kts | 9° |
| 2026-05-05 17:22 | 45.54041 | 6.81573 | 37918 ft | 482 kts | 27° |
| 2026-05-05 17:22 | 45.59494 | 6.86093 | 37922 ft | 482 kts | 27° |
| 2026-05-05 17:23 | 45.64317 | 6.90104 | 37931 ft | 483 kts | 27° |
| 2026-05-05 17:23 | 45.70128 | 6.94950 | 37944 ft | 484 kts | 28° |
| 2026-05-05 17:24 | 45.76878 | 7.00590 | 37945 ft | 483 kts | 28° |
| 2026-05-05 17:24 | 45.82677 | 7.05452 | 37950 ft | 483 kts | 28° |
| 2026-05-05 17:25 | 45.87538 | 7.09534 | 37955 ft | 483 kts | 28° |
| 2026-05-05 17:25 | 45.93300 | 7.14377 | 37962 ft | 483 kts | 28° |
| 2026-05-05 17:26 | 45.99092 | 7.19273 | 37942 ft | 483 kts | 28° |
| 2026-05-05 17:26 | 46.04876 | 7.24181 | 37941 ft | 482 kts | 28° |
| 2026-05-05 17:27 | 46.10652 | 7.29098 | 37938 ft | 482 kts | 28° |
| 2026-05-05 17:27 | 46.16428 | 7.34020 | 37943 ft | 482 kts | 28° |
| 2026-05-05 17:28 | 46.22198 | 7.38943 | 37941 ft | 481 kts | 28° |
| 2026-05-05 17:28 | 46.27959 | 7.43858 | 37948 ft | 481 kts | 28° |
| 2026-05-05 17:29 | 46.33714 | 7.48793 | 37943 ft | 480 kts | 28° |
| 2026-05-05 17:29 | 46.39419 | 7.53712 | 37943 ft | 480 kts | 28° |
| 2026-05-05 17:30 | 46.45153 | 7.58660 | 37940 ft | 480 kts | 28° |
| 2026-05-05 17:30 | 46.50895 | 7.63611 | 37938 ft | 480 kts | 29° |
| 2026-05-05 17:31 | 46.56628 | 7.68582 | 37936 ft | 479 kts | 29° |
| 2026-05-05 17:31 | 46.62338 | 7.73581 | 37943 ft | 479 kts | 30° |
| 2026-05-05 17:32 | 46.68002 | 7.78713 | 37943 ft | 479 kts | 30° |
| 2026-05-05 17:32 | 46.73654 | 7.83903 | 37936 ft | 482 kts | 31° |
| 2026-05-05 17:33 | 46.79310 | 7.89081 | 37905 ft | 480 kts | 31° |
| 2026-05-05 17:33 | 46.84987 | 7.94256 | 37914 ft | 482 kts | 31° |
| 2026-05-05 17:34 | 46.90676 | 7.99449 | 37909 ft | 482 kts | 31° |
| 2026-05-05 17:34 | 46.96362 | 8.04666 | 37908 ft | 483 kts | 31° |
| 2026-05-05 17:35 | 47.02023 | 8.09875 | 37922 ft | 483 kts | 31° |
| 2026-05-05 17:35 | 47.07720 | 8.15123 | 37934 ft | 483 kts | 31° |
| 2026-05-05 17:36 | 47.13013 | 8.20010 | 37941 ft | 483 kts | 31° |
| 2026-05-05 17:36 | 47.18699 | 8.25288 | 37937 ft | 483 kts | 31° |
| 2026-05-05 17:37 | 47.24373 | 8.30565 | 37928 ft | 483 kts | 32° |
| 2026-05-05 17:37 | 47.30007 | 8.35811 | 37868 ft | 479 kts | 32° |
| 2026-05-05 17:38 | 47.35648 | 8.41081 | 37890 ft | 481 kts | 32° |
| 2026-05-05 17:38 | 47.41260 | 8.46330 | 37892 ft | 481 kts | 32° |
| 2026-05-05 17:39 | 47.46914 | 8.51638 | 37895 ft | 481 kts | 32° |
| 2026-05-05 17:39 | 47.52556 | 8.56956 | 37901 ft | 480 kts | 32° |
| 2026-05-05 17:40 | 47.58192 | 8.62269 | 37899 ft | 481 kts | 32° |
| 2026-05-05 17:40 | 47.63840 | 8.67607 | 37906 ft | 481 kts | 32° |
| 2026-05-05 17:41 | 47.69466 | 8.72946 | 37905 ft | 480 kts | 32° |
| 2026-05-05 17:41 | 47.75090 | 8.78300 | 37899 ft | 480 kts | 32° |
| 2026-05-05 17:42 | 47.80722 | 8.83675 | 37894 ft | 480 kts | 33° |
| 2026-05-05 17:42 | 47.86338 | 8.89043 | 37891 ft | 479 kts | 33° |
| 2026-05-05 17:43 | 47.91915 | 8.94380 | 37891 ft | 479 kts | 33° |
| 2026-05-05 17:43 | 47.97504 | 8.99747 | 37881 ft | 479 kts | 33° |
| 2026-05-05 17:44 | 48.03121 | 9.05170 | 37881 ft | 479 kts | 33° |
| 2026-05-05 17:44 | 48.08728 | 9.10584 | 37869 ft | 479 kts | 33° |
| 2026-05-05 17:45 | 48.14473 | 9.15595 | 37871 ft | 478 kts | 19° |
| 2026-05-05 17:45 | 48.17685 | 9.16761 | 37871 ft | 475 kts | 5° |
| 2026-05-05 17:45 | 48.20968 | 9.17319 | 37861 ft | 475 kts | 5° |
| 2026-05-05 17:46 | 48.27543 | 9.18378 | 37858 ft | 475 kts | 4° |
| 2026-05-05 17:46 | 48.34081 | 9.19419 | 37859 ft | 476 kts | 5° |
| 2026-05-05 17:47 | 48.40672 | 9.20487 | 37858 ft | 476 kts | 5° |
| 2026-05-05 17:47 | 48.47272 | 9.21574 | 37856 ft | 476 kts | 5° |
| 2026-05-05 17:48 | 48.53858 | 9.22664 | 37859 ft | 476 kts | 5° |
| 2026-05-05 17:48 | 48.60438 | 9.23756 | 37861 ft | 476 kts | 5° |
| 2026-05-05 17:49 | 48.66989 | 9.24841 | 37862 ft | 476 kts | 5° |
| 2026-05-05 17:49 | 48.73572 | 9.25924 | 37861 ft | 476 kts | 5° |
| 2026-05-05 17:50 | 48.80156 | 9.27021 | 37858 ft | 476 kts | 5° |
| 2026-05-05 17:50 | 48.86747 | 9.28125 | 37858 ft | 476 kts | 5° |
| 2026-05-05 17:51 | 48.93324 | 9.29229 | 37854 ft | 476 kts | 5° |
| 2026-05-05 17:51 | 48.99898 | 9.30327 | 37858 ft | 476 kts | 5° |
| 2026-05-05 17:52 | 49.06494 | 9.31431 | 37856 ft | 475 kts | 5° |
| 2026-05-05 17:52 | 49.13067 | 9.32540 | 37859 ft | 475 kts | 5° |
| 2026-05-05 17:53 | 49.19636 | 9.33652 | 37852 ft | 475 kts | 5° |
| 2026-05-05 17:53 | 49.26213 | 9.34771 | 37858 ft | 475 kts | 5° |
| 2026-05-05 17:54 | 49.32775 | 9.35881 | 37855 ft | 474 kts | 5° |
| 2026-05-05 17:54 | 49.39293 | 9.36997 | 37855 ft | 474 kts | 5° |
| 2026-05-05 17:55 | 49.45855 | 9.38118 | 37850 ft | 474 kts | 5° |
| 2026-05-05 17:55 | 49.52403 | 9.39232 | 37854 ft | 473 kts | 5° |
| 2026-05-05 17:56 | 49.58917 | 9.40349 | 37851 ft | 473 kts | 5° |
| 2026-05-05 17:56 | 49.65488 | 9.41486 | 37852 ft | 473 kts | 5° |
| 2026-05-05 17:57 | 49.72030 | 9.42615 | 37847 ft | 472 kts | 5° |
| 2026-05-05 17:57 | 49.78560 | 9.43751 | 37845 ft | 472 kts | 5° |
| 2026-05-05 17:58 | 49.85088 | 9.44875 | 37844 ft | 472 kts | 5° |
| 2026-05-05 17:58 | 49.91578 | 9.46000 | 37840 ft | 472 kts | 5° |
| 2026-05-05 17:59 | 49.98093 | 9.47141 | 37843 ft | 471 kts | 5° |
| 2026-05-05 17:59 | 50.04614 | 9.48277 | 37840 ft | 471 kts | 6° |
| 2026-05-05 18:00 | 50.11146 | 9.49422 | 37837 ft | 471 kts | 5° |
| 2026-05-05 18:00 | 50.17662 | 9.50568 | 37840 ft | 471 kts | 6° |
| 2026-05-05 18:01 | 50.24185 | 9.51731 | 37687 ft | 473 kts | 6° |
| 2026-05-05 18:01 | 50.27447 | 9.52311 | 37266 ft | 471 kts | 6° |
| 2026-05-05 18:01 | 50.30703 | 9.52885 | 36858 ft | 471 kts | 6° |
| 2026-05-05 18:01 | 50.33964 | 9.53460 | 36456 ft | 471 kts | 6° |
| 2026-05-05 18:02 | 50.37223 | 9.54039 | 36064 ft | 472 kts | 6° |
| 2026-05-05 18:02 | 50.40493 | 9.54626 | 35676 ft | 473 kts | 7° |
| 2026-05-05 18:02 | 50.43756 | 9.55210 | 35297 ft | 473 kts | 7° |
| 2026-05-05 18:02 | 50.47036 | 9.55792 | 34922 ft | 474 kts | 7° |
| 2026-05-05 18:03 | 50.50311 | 9.56373 | 34556 ft | 474 kts | 7° |
| 2026-05-05 18:03 | 50.53582 | 9.56959 | 34176 ft | 475 kts | 7° |
| 2026-05-05 18:03 | 50.56845 | 9.57545 | 33676 ft | 475 kts | 7° |
| 2026-05-05 18:03 | 50.60117 | 9.58128 | 33119 ft | 471 kts | 7° |
| 2026-05-05 18:04 | 50.63357 | 9.58702 | 32586 ft | 467 kts | 7° |
| 2026-05-05 18:04 | 50.66577 | 9.59278 | 32032 ft | 463 kts | 7° |
| 2026-05-05 18:04 | 50.69766 | 9.59855 | 31526 ft | 459 kts | 7° |
| 2026-05-05 18:04 | 50.72931 | 9.60433 | 31015 ft | 455 kts | 7° |
| 2026-05-05 18:05 | 50.76062 | 9.61004 | 30516 ft | 451 kts | 7° |
| 2026-05-05 18:05 | 50.79164 | 9.61569 | 30027 ft | 447 kts | 7° |
| 2026-05-05 18:05 | 50.82236 | 9.62126 | 29492 ft | 443 kts | 7° |
| 2026-05-05 18:05 | 50.85290 | 9.62679 | 28929 ft | 439 kts | 7° |